Time;durP1;ratioP1;P1;durP2;ratioP2;P2;SDS_P1;SDS_P2;PMS_P1;PMS_P2;Temp;Humidity;BMP_temperature;BMP_pressure;BME280_temperature;BME280_humidity;BME280_pressure;Samples;Min_cycle;Max_cycle;Signal;HPM_P1;HPM_P2
2022/05/08 00:01:50;;;;;;;2.25;0.68;;;11.40;99.90;;;;;;5070551;28;20573;-71
2022/05/08 00:04:18;;;;;;;0.90;0.70;;;11.40;99.90;;;;;;5074301;28;20017;-73
2022/05/08 00:06:46;;;;;;;1.10;0.40;;;11.40;99.90;;;;;;5074844;28;20025;-73
2022/05/08 00:09:13;;;;;;;0.73;0.50;;;11.50;99.90;;;;;;5074668;28;20016;-72
2022/05/08 00:11:41;;;;;;;0.63;0.40;;;11.70;99.90;;;;;;5073367;28;20071;-74
2022/05/08 00:14:09;;;;;;;1.38;0.60;;;11.80;99.90;;;;;;5074204;28;20033;-72
2022/05/08 00:16:36;;;;;;;1.42;0.60;;;11.80;99.90;;;;;;5074269;28;20104;-71
2022/05/08 00:19:04;;;;;;;1.02;0.50;;;11.90;99.90;;;;;;5074431;28;20029;-71
2022/05/08 00:21:32;;;;;;;0.85;0.40;;;11.90;99.90;;;;;;5073192;28;20113;-71
2022/05/08 00:23:59;;;;;;;0.90;0.60;;;12.00;99.90;;;;;;5074034;28;20389;-72
2022/05/08 00:26:27;;;;;;;1.58;0.60;;;12.00;99.90;;;;;;5071770;28;20444;-73
2022/05/08 00:28:55;;;;;;;0.63;0.63;;;12.10;99.90;;;;;;5073532;28;20042;-72
2022/05/08 00:31:24;;;;;;;3.55;0.80;;;12.10;99.90;;;;;;5073514;28;20036;-72
2022/05/08 00:33:52;;;;;;;1.38;0.50;;;12.20;99.90;;;;;;5073150;28;20103;-72
2022/05/08 00:36:20;;;;;;;1.27;0.50;;;12.30;99.90;;;;;;5072924;28;20033;-73
2022/05/08 00:38:48;;;;;;;1.92;0.90;;;12.40;99.90;;;;;;5070694;28;20017;-72
2022/05/08 00:41:16;;;;;;;2.28;0.90;;;12.40;99.90;;;;;;5073402;28;20028;-74
2022/05/08 00:43:43;;;;;;;2.33;0.70;;;12.60;99.90;;;;;;5073142;28;20366;-71
2022/05/08 00:46:16;;;;;;;1.95;0.52;;;12.60;99.90;;;;;;5073774;28;20503;-72
2022/05/08 00:48:44;;;;;;;1.00;0.50;;;12.70;99.90;;;;;;5073880;28;20060;-71
2022/05/08 00:51:15;;;;;;;2.30;1.00;;;12.70;99.90;;;;;;5073150;28;20024;-73
2022/05/08 00:53:50;;;;;;;2.72;0.70;;;12.80;99.90;;;;;;5073517;28;20016;-74
2022/05/08 00:56:20;;;;;;;3.92;0.40;;;12.80;99.90;;;;;;5073294;28;20031;-73
2022/05/08 00:58:54;;;;;;;1.17;0.60;;;12.90;99.90;;;;;;5073759;28;20020;-72
2022/05/08 01:01:22;;;;;;;1.30;0.60;;;13.00;99.90;;;;;;5073402;28;20036;-72
2022/05/08 01:03:50;;;;;;;2.88;1.15;;;13.00;99.90;;;;;;5073350;28;20059;-73
2022/05/08 01:06:19;;;;;;;2.85;0.65;;;13.00;99.90;;;;;;5072388;28;20028;-72
2022/05/08 01:08:49;;;;;;;1.23;0.55;;;13.00;99.90;;;;;;5073315;28;20020;-75
2022/05/08 01:11:17;;;;;;;0.77;0.43;;;13.10;99.90;;;;;;5072710;28;20028;-74
2022/05/08 01:13:46;;;;;;;1.63;0.93;;;13.10;99.90;;;;;;5073236;28;20062;-70
2022/05/08 01:16:23;;;;;;;3.03;0.85;;;13.20;99.90;;;;;;5072900;28;20067;-73
2022/05/08 01:18:51;;;;;;;1.25;0.68;;;13.30;99.90;;;;;;5073524;28;20377;-72
2022/05/08 01:21:29;;;;;;;0.95;0.60;;;13.40;99.90;;;;;;5072961;28;20469;-73
2022/05/08 01:23:57;;;;;;;1.15;0.50;;;13.40;99.90;;;;;;5072868;28;20025;-73
2022/05/08 01:26:24;;;;;;;0.47;0.40;;;13.50;99.90;;;;;;5073176;28;20385;-73
2022/05/08 01:28:52;;;;;;;1.55;0.90;;;13.50;99.90;;;;;;5072848;28;20020;-72
2022/05/08 01:31:20;;;;;;;0.95;0.82;;;13.50;99.90;;;;;;5072361;28;20043;-73
2022/05/08 01:33:48;;;;;;;3.05;0.50;;;13.50;99.90;;;;;;5072205;28;20024;-73
2022/05/08 01:36:16;;;;;;;0.85;0.45;;;13.60;99.90;;;;;;5071659;28;20033;-72
2022/05/08 01:38:44;;;;;;;3.80;0.60;;;13.70;99.90;;;;;;5072393;28;20024;-72
2022/05/08 01:41:11;;;;;;;6.28;1.20;;;13.80;99.90;;;;;;5072294;28;20481;-72
2022/05/08 01:43:56;;;;;;;3.45;0.70;;;14.00;99.90;;;;;;5070864;28;20041;-72
2022/05/08 01:46:24;;;;;;;1.70;0.97;;;14.10;99.90;;;;;;5072648;28;20035;-73
2022/05/08 01:48:52;;;;;;;1.65;0.57;;;14.20;99.90;;;;;;5072773;28;20021;-73
2022/05/08 01:51:22;;;;;;;2.30;0.60;;;14.30;99.90;;;;;;5070542;28;20462;-73
2022/05/08 01:53:50;;;;;;;1.15;0.63;;;14.30;99.90;;;;;;5071401;28;20024;-72
2022/05/08 01:56:19;;;;;;;3.78;0.70;;;14.30;99.90;;;;;;5072804;28;20032;-73
2022/05/08 01:58:48;;;;;;;1.23;0.88;;;14.30;99.90;;;;;;5072900;28;20425;-72
2022/05/08 02:01:16;;;;;;;0.77;0.40;;;14.30;99.90;;;;;;5072807;28;20048;-73
2022/05/08 02:03:45;;;;;;;1.75;0.75;;;14.20;99.90;;;;;;5072750;28;20067;-72
2022/05/08 02:06:17;;;;;;;0.98;0.60;;;14.20;99.90;;;;;;5061973;28;20100;-73
2022/05/08 02:08:45;;;;;;;0.75;0.50;;;14.20;99.90;;;;;;5050808;28;20021;-73
2022/05/08 02:11:12;;;;;;;1.42;0.70;;;14.20;99.90;;;;;;5062472;28;20024;-73
2022/05/08 02:13:40;;;;;;;1.15;0.50;;;14.20;99.90;;;;;;5070830;28;20020;-72
2022/05/08 02:16:11;;;;;;;1.25;0.52;;;14.30;99.90;;;;;;5070708;28;20035;-75
2022/05/08 02:18:38;;;;;;;1.00;0.60;;;14.30;99.90;;;;;;5070762;28;20029;-74
2022/05/08 02:21:06;;;;;;;4.30;0.98;;;14.40;99.90;;;;;;5071849;28;20047;-73
2022/05/08 02:23:34;;;;;;;1.42;0.80;;;14.50;99.90;;;;;;5071399;28;20024;-73
2022/05/08 02:26:02;;;;;;;0.88;0.43;;;14.50;99.90;;;;;;5072662;28;20047;-73
2022/05/08 02:28:29;;;;;;;0.90;0.60;;;14.50;99.90;;;;;;5072752;28;20020;-71
2022/05/08 02:30:57;;;;;;;3.92;1.10;;;14.50;99.90;;;;;;5072844;28;20025;-74
2022/05/08 02:33:25;;;;;;;4.78;1.67;;;14.70;99.90;;;;;;5072787;28;20047;-71
2022/05/08 02:35:53;;;;;;;1.77;0.60;;;14.90;99.90;;;;;;5072589;28;20049;-71
2022/05/08 02:38:21;;;;;;;6.18;0.70;;;14.90;99.90;;;;;;5072891;28;20016;-72
2022/05/08 02:40:48;;;;;;;3.13;1.80;;;14.90;99.90;;;;;;5072677;28;20076;-71
2022/05/08 02:43:20;;;;;;;1.30;0.50;;;15.00;99.90;;;;;;5072758;28;20112;-74
2022/05/08 02:45:49;;;;;;;2.13;0.63;;;15.00;99.90;;;;;;5068696;28;20059;-71
2022/05/08 02:48:16;;;;;;;1.65;0.45;;;14.90;99.90;;;;;;5057400;28;20044;-71
2022/05/08 02:50:44;;;;;;;1.23;0.47;;;15.10;99.90;;;;;;5073431;28;20478;-73
2022/05/08 02:53:12;;;;;;;0.65;0.40;;;15.20;99.90;;;;;;5068136;28;20016;-72
2022/05/08 02:58:34;;;;;;;2.17;0.40;;;15.40;99.90;;;;;;5075556;28;20067;-72
2022/05/08 03:01:06;;;;;;;0.40;0.30;;;15.50;99.90;;;;;;5074858;28;20033;-71
2022/05/08 03:03:35;;;;;;;1.27;0.50;;;15.70;99.90;;;;;;5075197;28;20028;-72
2022/05/08 03:06:03;;;;;;;3.05;0.73;;;15.80;99.90;;;;;;5074238;28;20028;-72
2022/05/08 03:08:31;;;;;;;0.70;0.30;;;15.80;99.90;;;;;;5074876;28;20416;-71
2022/05/08 03:13:45;;;;;;;2.17;1.30;;;16.00;99.90;;;;;;5054949;28;20120;-73
2022/05/08 03:16:13;;;;;;;0.75;0.40;;;16.10;99.90;;;;;;5054485;28;20048;-73
2022/05/08 03:18:41;;;;;;;0.65;0.40;;;16.00;99.90;;;;;;5054602;28;20052;-71
2022/05/08 03:21:10;;;;;;;1.13;0.50;;;16.00;99.90;;;;;;5054562;28;20517;-74
2022/05/08 03:23:39;;;;;;;0.90;0.60;;;16.00;99.90;;;;;;5054641;28;20029;-71
2022/05/08 03:26:07;;;;;;;1.70;0.45;;;16.10;99.90;;;;;;5054601;28;20049;-72
2022/05/08 03:28:39;;;;;;;0.95;0.30;;;16.10;99.90;;;;;;5054621;28;20029;-73
2022/05/08 03:31:08;;;;;;;0.73;0.40;;;16.10;99.90;;;;;;5055748;28;20536;-74
2022/05/08 03:33:37;;;;;;;0.95;0.35;;;16.10;99.90;;;;;;5055666;28;20021;-74
2022/05/08 03:36:06;;;;;;;1.33;0.50;;;16.00;99.90;;;;;;5055336;28;20533;-72
2022/05/08 03:38:35;;;;;;;0.82;0.52;;;15.90;99.90;;;;;;5055532;28;20025;-74
2022/05/08 03:41:02;;;;;;;1.35;0.88;;;16.00;99.90;;;;;;5055238;28;20517;-72
2022/05/08 03:43:30;;;;;;;0.85;0.50;;;16.00;99.90;;;;;;5055288;28;20120;-71
2022/05/08 03:45:58;;;;;;;3.17;0.50;;;16.00;99.90;;;;;;5061090;28;20401;-71
2022/05/08 03:48:25;;;;;;;3.08;0.57;;;16.00;99.90;;;;;;5073738;28;20048;-74
2022/05/08 03:50:53;;;;;;;1.05;0.40;;;16.20;99.90;;;;;;5074052;28;20114;-73
2022/05/08 03:53:21;;;;;;;1.52;0.50;;;16.20;99.90;;;;;;5073905;28;20028;-74
2022/05/08 03:55:48;;;;;;;0.82;0.40;;;16.20;99.90;;;;;;5073738;28;20059;-72
2022/05/08 03:58:17;;;;;;;2.00;0.45;;;16.20;99.90;;;;;;5074056;28;20055;-74
2022/05/08 04:00:45;;;;;;;1.45;0.50;;;16.20;99.90;;;;;;5073771;28;20040;-73
2022/05/08 04:03:13;;;;;;;0.52;0.30;;;16.10;99.90;;;;;;5073780;28;20452;-74
2022/05/08 04:05:41;;;;;;;0.85;0.40;;;16.10;99.90;;;;;;5073655;28;20432;-74
2022/05/08 04:08:09;;;;;;;1.52;0.88;;;16.30;99.90;;;;;;5073771;28;20025;-71
2022/05/08 04:10:36;;;;;;;0.35;0.30;;;16.40;99.90;;;;;;5073755;28;20078;-74
2022/05/08 04:13:04;;;;;;;1.02;0.40;;;16.40;99.90;;;;;;5073657;28;20555;-74
2022/05/08 04:16:32;;;;;;;0.75;0.50;;;16.50;99.90;;;;;;5073596;28;20033;-74
2022/05/08 04:18:28;;;;;;;1.27;0.38;;;16.50;99.90;;;;;;5069139;28;20039;-73
2022/05/08 04:20:56;;;;;;;1.40;0.60;;;16.40;99.90;;;;;;5074551;28;20489;-72
2022/05/08 04:26:10;;;;;;;1.55;0.70;;;16.50;99.90;;;;;;5075005;28;20503;-73
2022/05/08 04:28:37;;;;;;;1.70;0.57;;;16.60;99.90;;;;;;5074378;28;20535;-74
2022/05/08 04:31:05;;;;;;;4.70;0.68;;;16.60;99.90;;;;;;5074369;28;20032;-71
2022/05/08 04:33:33;;;;;;;1.02;0.40;;;16.60;99.90;;;;;;5074931;28;20380;-71
2022/05/08 04:36:01;;;;;;;2.08;0.65;;;16.60;99.90;;;;;;5074065;28;20044;-72
2022/05/08 04:38:28;;;;;;;0.93;0.38;;;16.60;99.90;;;;;;5074436;28;20032;-72
2022/05/08 04:40:56;;;;;;;2.13;0.55;;;16.50;99.90;;;;;;5074379;28;20442;-72
2022/05/08 04:43:24;;;;;;;1.10;0.35;;;16.50;99.90;;;;;;5074094;28;20847;-72
2022/05/08 04:45:51;;;;;;;3.55;0.45;;;16.40;99.90;;;;;;5074130;28;20028;-73
2022/05/08 04:48:19;;;;;;;1.15;0.40;;;16.40;99.90;;;;;;5074112;28;20043;-73
2022/05/08 04:50:47;;;;;;;1.35;0.65;;;16.40;99.90;;;;;;5074070;28;20412;-72
2022/05/08 04:53:15;;;;;;;2.13;0.50;;;16.50;99.90;;;;;;5073961;28;20025;-72
2022/05/08 04:55:42;;;;;;;1.45;0.40;;;16.40;99.90;;;;;;5073781;28;20056;-72
2022/05/08 04:58:10;;;;;;;0.73;0.50;;;16.40;99.90;;;;;;5073507;28;20032;-71
2022/05/08 05:00:38;;;;;;;1.25;0.60;;;16.40;99.90;;;;;;5072653;28;20131;-73
2022/05/08 05:03:06;;;;;;;1.83;0.70;;;16.30;99.90;;;;;;5072388;28;20017;-74
2022/05/08 05:05:34;;;;;;;0.70;0.43;;;16.30;99.90;;;;;;5073013;28;20052;-73
2022/05/08 05:08:02;;;;;;;3.75;0.70;;;16.30;99.90;;;;;;5073763;28;20027;-71
2022/05/08 05:10:29;;;;;;;1.83;0.57;;;16.30;99.90;;;;;;5073680;28;20033;-71
2022/05/08 05:12:57;;;;;;;2.22;0.70;;;16.30;99.90;;;;;;5073094;28;20472;-72
2022/05/08 05:15:25;;;;;;;0.65;0.38;;;16.30;99.90;;;;;;5073624;28;20051;-72
2022/05/08 05:17:58;;;;;;;0.35;0.30;;;16.40;99.90;;;;;;5073708;28;20020;-73
2022/05/08 05:20:25;;;;;;;1.00;0.50;;;16.30;99.90;;;;;;5073567;28;20021;-72
2022/05/08 05:22:53;;;;;;;7.95;1.02;;;16.30;99.90;;;;;;5073319;28;20029;-72
2022/05/08 05:25:21;;;;;;;0.75;0.40;;;16.30;99.90;;;;;;5073492;28;20097;-72
2022/05/08 05:27:48;;;;;;;3.10;0.40;;;16.30;99.90;;;;;;5073107;28;20025;-72
2022/05/08 05:30:16;;;;;;;3.65;0.70;;;16.30;99.90;;;;;;5073426;28;20535;-70
2022/05/08 05:32:44;;;;;;;0.95;0.50;;;16.30;99.90;;;;;;5073399;28;20074;-72
2022/05/08 05:35:12;;;;;;;1.15;0.60;;;16.40;99.90;;;;;;5071801;28;20059;-73
2022/05/08 05:37:40;;;;;;;1.92;0.70;;;16.30;99.90;;;;;;5073435;28;20025;-72
2022/05/08 05:40:09;;;;;;;0.90;0.60;;;16.30;99.90;;;;;;5073630;28;20028;-72
2022/05/08 05:42:37;;;;;;;1.15;0.38;;;16.30;99.90;;;;;;5073360;28;20021;-71
2022/05/08 05:45:05;;;;;;;1.40;0.95;;;16.30;99.90;;;;;;5073383;28;20024;-72
2022/05/08 05:47:52;;;;;;;1.02;0.60;;;16.20;99.90;;;;;;5073499;28;20473;-72
2022/05/08 05:50:30;;;;;;;1.45;0.32;;;16.20;99.90;;;;;;5073233;28;20060;-72
2022/05/08 05:52:58;;;;;;;4.18;0.50;;;16.10;99.90;;;;;;5073301;28;20032;-73
2022/05/08 05:55:25;;;;;;;0.90;0.40;;;16.10;99.90;;;;;;5073239;28;20020;-72
2022/05/08 05:57:53;;;;;;;1.92;0.35;;;16.00;99.90;;;;;;5073411;28;20039;-73
2022/05/08 06:00:21;;;;;;;2.42;0.70;;;16.00;99.90;;;;;;5073030;28;20554;-73
2022/05/08 06:02:49;;;;;;;0.32;0.28;;;15.90;99.90;;;;;;5073097;28;20037;-73
2022/05/08 06:05:17;;;;;;;0.90;0.40;;;15.90;99.90;;;;;;5073241;28;20024;-74
2022/05/08 06:07:44;;;;;;;1.73;0.55;;;16.00;99.90;;;;;;5073127;28;20105;-73
2022/05/08 06:10:14;;;;;;;1.00;0.50;;;15.90;99.90;;;;;;5073283;28;20102;-72
2022/05/08 06:12:41;;;;;;;1.02;0.50;;;15.90;99.90;;;;;;5072913;28;20484;-73
2022/05/08 06:15:10;;;;;;;4.05;0.90;;;15.80;99.90;;;;;;5071691;28;20028;-73
2022/05/08 06:17:38;;;;;;;0.98;0.55;;;15.80;99.90;;;;;;5071849;28;20017;-72
2022/05/08 06:20:06;;;;;;;2.00;0.70;;;15.70;99.90;;;;;;5071891;28;20481;-70
2022/05/08 06:22:34;;;;;;;0.70;0.40;;;15.70;99.90;;;;;;5069142;28;20028;-73
2022/05/08 06:25:04;;;;;;;1.02;0.50;;;15.60;99.90;;;;;;5072479;28;20096;-73
2022/05/08 06:27:31;;;;;;;3.40;0.88;;;15.50;99.90;;;;;;5071017;28;20048;-73
2022/05/08 06:29:59;;;;;;;1.10;0.60;;;15.40;99.90;;;;;;5075203;28;20380;-71
2022/05/08 06:32:27;;;;;;;0.85;0.47;;;15.30;99.90;;;;;;5075146;28;20029;-71
2022/05/08 06:34:54;;;;;;;2.83;0.77;;;15.30;99.90;;;;;;5074735;28;20063;-73
2022/05/08 06:37:22;;;;;;;1.95;0.73;;;15.30;99.90;;;;;;5074989;28;20101;-72
2022/05/08 06:39:50;;;;;;;4.85;0.60;;;15.20;99.90;;;;;;5074828;28;20070;-72
2022/05/08 06:42:18;;;;;;;2.08;0.80;;;15.20;99.90;;;;;;5075344;28;20021;-74
2022/05/08 06:44:46;;;;;;;1.20;0.85;;;15.30;99.90;;;;;;5074942;28;20020;-74
2022/05/08 06:47:14;;;;;;;2.03;0.70;;;15.30;99.90;;;;;;5073109;28;20430;-71
2022/05/08 06:49:41;;;;;;;1.88;0.60;;;15.30;99.90;;;;;;5074894;28;20078;-72
2022/05/08 06:52:09;;;;;;;1.30;0.80;;;15.20;99.90;;;;;;5074805;28;20012;-71
2022/05/08 06:54:37;;;;;;;1.63;0.73;;;15.20;99.90;;;;;;5074858;28;20016;-70
2022/05/08 06:57:05;;;;;;;2.28;0.90;;;15.10;99.90;;;;;;5073738;28;20025;-71
2022/05/08 07:02:18;;;;;;;1.52;0.73;;;15.00;99.90;;;;;;5075057;28;20043;-71
2022/05/08 07:04:46;;;;;;;2.85;1.20;;;14.90;99.90;;;;;;5075514;28;20393;-71
2022/05/08 07:07:14;;;;;;;2.85;1.45;;;14.80;99.90;;;;;;5074460;28;20101;-72
2022/05/08 07:09:41;;;;;;;1.92;1.00;;;14.70;99.90;;;;;;5073263;28;20090;-73
2022/05/08 07:12:09;;;;;;;2.20;1.25;;;14.60;99.90;;;;;;5072373;28;20443;-72
2022/05/08 07:14:40;;;;;;;2.25;1.20;;;14.60;99.90;;;;;;5072452;28;20021;-72
2022/05/08 07:17:07;;;;;;;1.40;0.88;;;14.60;99.90;;;;;;5072116;28;20067;-71
2022/05/08 07:19:35;;;;;;;3.38;1.10;;;14.40;99.90;;;;;;5072350;28;20100;-74
2022/05/08 07:22:03;;;;;;;1.73;1.20;;;14.40;99.90;;;;;;5073023;28;20029;-72
2022/05/08 07:24:30;;;;;;;2.50;1.00;;;14.30;99.90;;;;;;5073421;28;20079;-73
2022/05/08 07:26:58;;;;;;;2.38;1.10;;;14.30;99.90;;;;;;5074451;28;20100;-74
2022/05/08 07:29:26;;;;;;;2.78;1.30;;;14.20;99.90;;;;;;5074378;28;20025;-74
2022/05/08 07:31:54;;;;;;;1.92;1.10;;;14.20;99.90;;;;;;5074291;28;20024;-73
2022/05/08 07:37:07;;;;;;;2.75;1.40;;;14.10;99.90;;;;;;5074096;28;20035;-73
2022/05/08 07:39:35;;;;;;;2.17;1.17;;;14.10;99.90;;;;;;5074282;28;20036;-72
2022/05/08 07:42:03;;;;;;;2.30;1.00;;;14.00;99.90;;;;;;5074257;28;20041;-74
2022/05/08 07:44:31;;;;;;;2.97;1.25;;;14.00;99.90;;;;;;5075227;28;20101;-72
2022/05/08 07:47:00;;;;;;;3.75;1.42;;;14.00;99.90;;;;;;5075113;28;20029;-72
2022/05/08 07:49:28;;;;;;;2.00;1.20;;;13.90;99.90;;;;;;5074887;28;20381;-73
2022/05/08 07:51:56;;;;;;;3.05;1.23;;;13.90;99.90;;;;;;5075350;28;20338;-71
2022/05/08 07:54:25;;;;;;;3.50;0.90;;;13.90;99.90;;;;;;5074858;28;20021;-73
2022/05/08 07:56:53;;;;;;;6.03;0.90;;;13.90;99.90;;;;;;5074708;28;20476;-74
2022/05/08 07:59:21;;;;;;;2.22;1.27;;;13.80;99.90;;;;;;5074931;28;20028;-74
2022/05/08 08:01:49;;;;;;;2.28;0.95;;;13.70;99.90;;;;;;5074742;28;20469;-72
2022/05/08 08:04:16;;;;;;;4.18;1.35;;;13.70;99.90;;;;;;5074394;28;20025;-71
2022/05/08 08:06:44;;;;;;;2.72;1.50;;;13.60;99.90;;;;;;5074983;28;20591;-71
2022/05/08 08:09:12;;;;;;;1.73;1.05;;;13.60;99.90;;;;;;5074796;28;20025;-72
2022/05/08 08:11:41;;;;;;;2.75;1.42;;;13.60;99.90;;;;;;5073246;28;20024;-72
2022/05/08 08:14:08;;;;;;;4.15;1.73;;;13.50;99.90;;;;;;5074705;28;20483;-71
2022/05/08 08:16:36;;;;;;;2.20;1.20;;;13.50;99.90;;;;;;5074609;28;20094;-71
2022/05/08 08:19:04;;;;;;;2.35;1.02;;;13.50;99.90;;;;;;5074947;28;20465;-71
2022/05/08 08:21:33;;;;;;;6.15;1.23;;;13.40;99.90;;;;;;5074492;28;20041;-72
2022/05/08 08:24:01;;;;;;;4.93;1.08;;;13.40;99.90;;;;;;5074400;28;20033;-71
2022/05/08 08:26:28;;;;;;;2.35;1.40;;;13.40;99.90;;;;;;5074180;28;20030;-72
2022/05/08 08:28:56;;;;;;;4.47;1.90;;;13.40;99.90;;;;;;5074233;28;20025;-71
2022/05/08 08:31:24;;;;;;;3.03;1.75;;;13.40;99.90;;;;;;5074415;28;20024;-72
2022/05/08 08:33:51;;;;;;;6.03;2.90;;;13.40;99.90;;;;;;5074123;28;20450;-71
2022/05/08 08:36:19;;;;;;;3.92;2.25;;;13.40;99.90;;;;;;5073894;28;20041;-71
2022/05/08 08:38:47;;;;;;;3.78;2.38;;;13.30;99.90;;;;;;5073357;28;20044;-73
2022/05/08 08:41:16;;;;;;;3.42;1.80;;;13.30;99.90;;;;;;5073066;28;20108;-73
2022/05/08 08:49:52;;;;;;;4.00;2.08;;;13.30;99.90;;;;;;5030904;28;20033;-73
2022/05/08 08:52:27;;;;;;;4.22;2.40;;;13.30;99.90;;;;;;5061313;28;20032;-72
2022/05/08 08:54:55;;;;;;;3.72;2.28;;;13.30;99.90;;;;;;5088132;28;20436;-71
2022/05/08 08:57:48;;;;;;;7.32;3.08;;;13.30;99.90;;;;;;5072962;28;20176;-73
2022/05/08 09:00:18;;;;;;;3.28;2.00;;;13.30;99.90;;;;;;5072591;28;20530;-72
2022/05/08 09:02:47;;;;;;;5.97;2.30;;;13.30;99.90;;;;;;5072100;28;20060;-73
2022/05/08 09:05:15;;;;;;;4.40;2.55;;;13.30;99.90;;;;;;5073873;28;20059;-72
2022/05/08 09:07:50;;;;;;;5.80;2.47;;;13.30;99.90;;;;;;5072228;28;20020;-73
2022/05/08 09:10:24;;;;;;;3.88;1.85;;;13.30;99.90;;;;;;5070272;28;20385;-71
2022/05/08 09:12:54;;;;;;;8.10;3.42;;;13.30;99.90;;;;;;5052832;28;20025;-73
2022/05/08 09:15:27;;;;;;;8.52;2.90;;;13.30;99.90;;;;;;5052414;28;20100;-72
2022/05/08 09:17:57;;;;;;;8.52;4.07;;;13.30;99.90;;;;;;5052516;28;20017;-72
2022/05/08 09:20:29;;;;;;;5.93;4.35;;;13.30;99.90;;;;;;5051405;28;20397;-72
2022/05/08 09:23:01;;;;;;;8.25;4.68;;;13.20;99.90;;;;;;5052767;28;20031;-72
2022/05/08 09:25:52;;;;;;;11.27;4.00;;;13.20;99.90;;;;;;5052866;28;20017;-72
2022/05/08 09:28:43;;;;;;;8.55;4.28;;;13.10;99.90;;;;;;5052608;28;20053;-71
2022/05/08 09:31:16;;;;;;;6.82;3.50;;;13.10;99.90;;;;;;5052448;28;20024;-72
2022/05/08 09:33:48;;;;;;;7.13;3.13;;;13.20;99.90;;;;;;5052600;28;20036;-72
2022/05/08 09:36:24;;;;;;;3.97;2.42;;;13.10;99.90;;;;;;5052244;28;20036;-72
2022/05/08 09:38:54;;;;;;;4.20;2.40;;;13.10;99.90;;;;;;5052228;28;20021;-72
2022/05/08 09:41:29;;;;;;;5.38;2.92;;;13.20;99.90;;;;;;5051751;28;20497;-72
2022/05/08 09:44:10;;;;;;;6.22;3.33;;;13.20;99.90;;;;;;5052699;28;20028;-72
2022/05/08 09:46:46;;;;;;;4.75;2.47;;;13.10;99.90;;;;;;5052593;28;20084;-73
2022/05/08 09:49:23;;;;;;;5.63;3.85;;;13.20;99.90;;;;;;5051863;28;20024;-73
2022/05/08 09:51:53;;;;;;;5.38;2.70;;;13.20;99.90;;;;;;5052490;28;20104;-72
2022/05/08 09:54:21;;;;;;;5.80;2.38;;;13.20;99.90;;;;;;5051384;28;20021;-72
2022/05/08 09:56:49;;;;;;;5.05;2.17;;;13.20;99.90;;;;;;5051376;28;20104;-72
2022/05/08 09:59:19;;;;;;;5.88;2.25;;;13.20;99.90;;;;;;5053750;28;20013;-71
2022/05/08 10:01:47;;;;;;;4.57;2.20;;;13.20;99.90;;;;;;5055263;28;20029;-72
2022/05/08 10:04:14;;;;;;;4.30;2.67;;;13.10;99.90;;;;;;5056325;28;20529;-73
2022/05/08 10:06:43;;;;;;;3.88;2.13;;;13.10;99.90;;;;;;5056171;28;20370;-73
2022/05/08 10:14:49;;;;;;;5.25;2.00;;;13.00;99.90;;;;;;5056308;28;20056;-73
2022/05/08 10:17:32;;;;;;;1.70;1.20;;;13.10;99.90;;;;;;5056080;28;20533;-72
2022/05/08 10:20:00;;;;;;;2.53;1.10;;;13.10;99.90;;;;;;5055644;28;20367;-72
2022/05/08 10:22:49;;;;;;;2.45;1.15;;;13.00;99.90;;;;;;5056021;28;20082;-73
2022/05/08 10:25:17;;;;;;;1.58;0.80;;;13.00;99.90;;;;;;5055177;28;20009;-72
2022/05/08 10:28:06;;;;;;;1.85;1.17;;;13.00;99.90;;;;;;5055398;28;20032;-73
2022/05/08 10:30:35;;;;;;;1.98;1.17;;;13.10;99.90;;;;;;5054218;28;20022;-71
2022/05/08 10:33:03;;;;;;;2.67;1.15;;;13.00;99.90;;;;;;5055869;28;20079;-72
2022/05/08 10:35:31;;;;;;;1.20;0.90;;;13.00;99.90;;;;;;5055218;28;20058;-72
2022/05/08 10:38:02;;;;;;;5.32;1.45;;;13.00;99.90;;;;;;5055721;28;20074;-72
2022/05/08 10:40:29;;;;;;;2.00;0.85;;;13.00;99.90;;;;;;5055314;28;20470;-72
2022/05/08 10:43:25;;;;;;;5.43;0.98;;;12.90;99.90;;;;;;5055658;28;20025;-72
2022/05/08 10:45:53;;;;;;;1.13;0.68;;;12.80;99.90;;;;;;5054347;28;20091;-72
2022/05/08 10:48:25;;;;;;;1.42;0.82;;;12.80;99.90;;;;;;5055671;28;20147;-71
2022/05/08 10:50:56;;;;;;;1.83;1.02;;;12.80;99.90;;;;;;5056328;28;20056;-73
2022/05/08 10:53:29;;;;;;;1.83;0.65;;;12.90;99.90;;;;;;5056019;28;20044;-72
2022/05/08 10:56:08;;;;;;;5.32;0.88;;;12.80;99.90;;;;;;5056080;28;20021;-72
2022/05/08 10:58:38;;;;;;;1.52;0.60;;;12.70;99.90;;;;;;5056099;28;20033;-74
2022/05/08 11:01:09;;;;;;;1.77;0.75;;;12.70;99.90;;;;;;5055719;28;20041;-73
2022/05/08 11:03:37;;;;;;;2.83;0.70;;;12.70;99.90;;;;;;5060797;28;20425;-73
2022/05/08 11:06:08;;;;;;;3.17;1.00;;;12.70;99.90;;;;;;5054648;28;20032;-74
2022/05/08 11:08:37;;;;;;;1.00;0.70;;;12.60;99.90;;;;;;5056460;28;20046;-73
2022/05/08 11:11:10;;;;;;;3.40;0.90;;;12.60;99.90;;;;;;5053919;28;20029;-74
2022/05/08 11:13:48;;;;;;;2.30;1.13;;;12.60;99.90;;;;;;5055658;28;20013;-73
2022/05/08 11:16:33;;;;;;;9.68;5.07;;;12.50;99.90;;;;;;5055525;28;20017;-73
2022/05/08 11:19:03;;;;;;;6.90;3.73;;;12.40;99.90;;;;;;5054547;28;20105;-74
2022/05/08 11:21:31;;;;;;;4.97;1.30;;;12.30;99.90;;;;;;5055597;28;20040;-73
2022/05/08 11:23:59;;;;;;;1.58;1.25;;;12.20;99.90;;;;;;5054991;28;20493;-72
2022/05/08 11:26:33;;;;;;;2.05;0.93;;;12.20;99.90;;;;;;5055298;28;20570;-72
2022/05/08 11:29:01;;;;;;;2.50;0.82;;;12.20;99.90;;;;;;5055327;28;20017;-73
2022/05/08 11:31:29;;;;;;;2.45;0.90;;;12.20;99.90;;;;;;5055450;28;20057;-72
2022/05/08 11:36:46;;;;;;;1.85;0.95;;;12.20;99.90;;;;;;5055379;28;20044;-72
2022/05/08 11:39:21;;;;;;;1.25;0.75;;;12.30;99.90;;;;;;5054808;28;20124;-74
2022/05/08 11:41:51;;;;;;;2.00;0.80;;;12.30;99.90;;;;;;5055129;28;20397;-73
2022/05/08 11:44:23;;;;;;;4.78;1.30;;;12.20;99.90;;;;;;5054509;28;20029;-73
2022/05/08 11:46:58;;;;;;;8.52;5.60;;;12.20;99.90;;;;;;5054770;28;20040;-72
2022/05/08 11:49:30;;;;;;;9.85;5.43;;;12.10;99.90;;;;;;5054765;28;20378;-72
2022/05/08 11:52:06;;;;;;;5.43;3.60;;;12.00;99.90;;;;;;5054747;28;20077;-71
2022/05/08 11:54:35;;;;;;;;;;;11.90;99.90;;;;;;5055370;28;20108;-72
2022/05/08 11:57:23;;;;;;;4.57;2.80;;;11.90;99.90;;;;;;5055015;28;19911;-72
2022/05/08 12:00:05;;;;;;;4.28;2.20;;;11.80;99.90;;;;;;5054927;28;20056;-72
2022/05/08 12:02:50;;;;;;;3.75;2.30;;;11.80;99.90;;;;;;5054320;28;20033;-72
2022/05/08 12:05:23;;;;;;;4.10;2.53;;;11.80;99.90;;;;;;5054132;28;20013;-73
2022/05/08 12:07:52;;;;;;;4.82;2.00;;;11.80;99.90;;;;;;5053925;28;20021;-72
2022/05/08 12:10:20;;;;;;;4.10;2.20;;;11.80;99.90;;;;;;5053618;28;20149;-73
2022/05/08 12:13:08;;;;;;;3.70;2.03;;;11.80;99.90;;;;;;5054348;28;20049;-72
2022/05/08 12:15:37;;;;;;;4.43;2.28;;;11.80;99.90;;;;;;5053881;28;20482;-73
2022/05/08 12:18:05;;;;;;;7.40;2.42;;;11.80;99.90;;;;;;5054059;28;20052;-74
2022/05/08 12:20:36;;;;;;;4.40;2.17;;;11.80;99.90;;;;;;5052980;28;20033;-73
2022/05/08 12:23:10;;;;;;;3.20;1.92;;;11.90;99.90;;;;;;5053715;28;20024;-73
2022/05/08 12:25:44;;;;;;;3.65;1.85;;;11.90;99.90;;;;;;5060607;28;20044;-72
2022/05/08 12:28:13;;;;;;;5.07;2.28;;;11.90;99.90;;;;;;5070041;28;20024;-71
2022/05/08 12:30:40;;;;;;;4.00;2.30;;;12.00;99.90;;;;;;5072295;28;20024;-71
2022/05/08 12:33:08;;;;;;;4.43;2.60;;;12.00;99.90;;;;;;5071700;28;20048;-74
2022/05/08 12:35:39;;;;;;;5.65;2.60;;;12.00;99.90;;;;;;5073301;28;20397;-73
2022/05/08 12:38:07;;;;;;;6.05;2.30;;;12.10;99.90;;;;;;5067221;28;20503;-71
2022/05/08 12:40:34;;;;;;;3.78;2.55;;;12.10;99.90;;;;;;5073199;28;20028;-73
2022/05/08 12:43:03;;;;;;;5.32;3.05;;;12.10;99.90;;;;;;5071986;28;20016;-72
2022/05/08 12:45:31;;;;;;;5.18;2.78;;;12.20;99.90;;;;;;5073029;28;20377;-72
2022/05/08 12:47:58;;;;;;;7.05;2.72;;;12.20;99.90;;;;;;5073173;28;20112;-71
2022/05/08 12:50:26;;;;;;;6.45;2.40;;;12.30;99.90;;;;;;5074011;28;20042;-73
2022/05/08 12:52:56;;;;;;;6.95;2.65;;;12.30;99.90;;;;;;5073900;28;20032;-71
2022/05/08 12:55:24;;;;;;;5.65;2.42;;;12.30;99.90;;;;;;5073778;28;20535;-72
2022/05/08 13:00:41;;;;;;;5.65;2.00;;;12.40;99.90;;;;;;5074226;28;20079;-73
2022/05/08 13:03:11;;;;;;;5.57;2.70;;;12.40;99.90;;;;;;5073977;28;20036;-73
2022/05/08 13:05:38;;;;;;;4.35;2.25;;;12.40;99.90;;;;;;5073774;28;20021;-74
2022/05/08 13:08:06;;;;;;;3.35;2.13;;;12.40;99.90;;;;;;5073945;28;20383;-72
2022/05/08 13:10:35;;;;;;;3.00;1.90;;;12.30;99.90;;;;;;5074174;28;20465;-72
2022/05/08 13:13:03;;;;;;;3.05;2.15;;;12.30;99.90;;;;;;5073665;28;20111;-73
2022/05/08 13:15:31;;;;;;;4.15;2.15;;;12.30;99.90;;;;;;5073394;28;20021;-74
2022/05/08 13:17:59;;;;;;;7.05;2.08;;;12.30;99.90;;;;;;5073875;28;20437;-72
2022/05/08 13:20:27;;;;;;;3.15;2.00;;;12.30;99.90;;;;;;5073482;28;20416;-72
2022/05/08 13:22:54;;;;;;;4.38;2.72;;;12.30;99.90;;;;;;5073513;28;20055;-74
2022/05/08 13:25:22;;;;;;;4.90;2.50;;;12.30;99.90;;;;;;5073672;28;20062;-72
2022/05/08 13:27:50;;;;;;;4.18;2.45;;;12.20;99.90;;;;;;5073465;28;20033;-73
2022/05/08 13:30:18;;;;;;;2.72;2.10;;;12.20;99.90;;;;;;5072134;28;20074;-72
2022/05/08 13:32:45;;;;;;;4.57;2.22;;;12.20;99.90;;;;;;5073418;28;20024;-73